Time;durP1;ratioP1;P1;durP2;ratioP2;P2;SDS_P1;SDS_P2;PMS_P1;PMS_P2;Temp;Humidity;BMP_temperature;BMP_pressure;BME280_temperature;BME280_humidity;BME280_pressure;Samples;Min_cycle;Max_cycle;Signal;HPM_P1;HPM_P2
2022/01/19 00:01:48;;;;;;;64.63;32.80;;;6.20;94.60;;;;;;6144360;23;20023;-88
2022/01/19 00:04:24;;;;;;;59.58;32.97;;;6.20;94.60;;;;;;6144733;23;20020;-88
2022/01/19 00:06:52;;;;;;;56.88;32.80;;;6.20;94.60;;;;;;6143895;23;20355;-87
2022/01/19 00:09:18;;;;;;;61.17;31.17;;;6.20;94.60;;;;;;6144763;23;20012;-88
2022/01/19 00:11:44;;;;;;;58.97;32.72;;;6.20;94.60;;;;;;6144724;23;20024;-88
2022/01/19 00:14:12;;;;;;;63.63;30.50;;;6.20;94.60;;;;;;6119960;23;20051;-87
2022/01/19 00:16:38;;;;;;;57.28;31.00;;;6.10;94.60;;;;;;6144679;23;20327;-89
2022/01/19 00:19:14;;;;;;;69.53;31.83;;;6.20;94.60;;;;;;6120103;23;20013;-87
2022/01/19 00:21:42;;;;;;;56.65;30.23;;;6.10;94.50;;;;;;6122516;23;20017;-87
2022/01/19 00:24:08;;;;;;;59.45;31.05;;;6.20;94.50;;;;;;6144307;23;20080;-88
2022/01/19 00:26:42;;;;;;;52.47;28.63;;;6.20;94.60;;;;;;6119976;23;20092;-88
2022/01/19 00:29:19;;;;;;;61.70;29.42;;;6.10;94.50;;;;;;6145698;23;20009;-87
2022/01/19 00:31:45;;;;;;;61.58;30.40;;;6.10;94.50;;;;;;6122078;23;20013;-88
2022/01/19 00:34:13;;;;;;;54.20;29.27;;;6.20;94.60;;;;;;6144184;23;20075;-88
2022/01/19 00:36:39;;;;;;;56.65;29.17;;;6.10;94.50;;;;;;6145568;23;20707;-88
2022/01/19 00:39:07;;;;;;;58.45;28.58;;;6.20;94.50;;;;;;6169071;23;20009;-87
2022/01/19 00:41:38;;;;;;;61.13;29.48;;;6.10;94.50;;;;;;6145814;23;20087;-88
2022/01/19 00:44:17;;;;;;;;;;;;;;;;;;;;;
2022/01/19 00:46:50;;;;;;;57.78;27.88;;;6.10;94.50;;;;;;6172633;23;20017;-88
2022/01/19 00:49:16;;;;;;;60.85;27.98;;;6.10;94.50;;;;;;6122138;23;20013;-88
2022/01/19 00:51:42;;;;;;;60.47;29.48;;;6.00;94.50;;;;;;6144835;23;20039;-89
2022/01/19 00:54:08;;;;;;;58.85;30.38;;;6.10;94.50;;;;;;6119975;23;20119;-88
2022/01/19 00:56:37;;;;;;;62.60;28.73;;;6.10;94.50;;;;;;6144786;23;20020;-88
2022/01/19 00:59:03;;;;;;;53.38;26.60;;;6.10;94.90;;;;;;6122191;23;20043;-88
2022/01/19 01:01:34;;;;;;;58.40;26.52;;;6.10;94.50;;;;;;6145260;23;20016;-88
2022/01/19 01:04:00;;;;;;;49.85;26.95;;;6.10;94.50;;;;;;6146202;23;20072;-87
2022/01/19 01:06:33;;;;;;;55.33;27.35;;;6.00;94.50;;;;;;6144091;23;20017;-88
2022/01/19 01:09:01;;;;;;;56.80;27.98;;;6.00;94.50;;;;;;6146345;23;20013;-88
2022/01/19 01:11:35;;;;;;;57.60;28.88;;;6.00;94.50;;;;;;6144853;23;20158;-87
2022/01/19 01:16:50;;;;;;;64.28;29.23;;;6.00;94.50;;;;;;6144597;23;20020;-89
2022/01/19 01:19:21;;;;;;;56.45;28.00;;;6.00;94.50;;;;;;6149776;23;20458;-85
2022/01/19 01:21:47;;;;;;;59.22;28.83;;;6.00;94.50;;;;;;6148080;23;20448;-88
2022/01/19 01:24:13;;;;;;;57.70;28.02;;;6.00;94.50;;;;;;6174484;23;20013;-88
2022/01/19 01:26:42;;;;;;;62.17;29.75;;;6.00;94.60;;;;;;6150333;23;20021;-87
2022/01/19 01:29:10;;;;;;;57.03;27.83;;;6.00;94.60;;;;;;6128939;23;20021;-87
2022/01/19 01:31:39;;;;;;;58.65;31.20;;;6.00;94.60;;;;;;6150218;23;20013;-88
2022/01/19 01:34:05;;;;;;;60.53;29.60;;;6.00;94.60;;;;;;6119375;23;20025;-89
2022/01/19 01:36:36;;;;;;;56.65;27.77;;;6.00;94.60;;;;;;6143214;23;20009;-87
2022/01/19 01:39:18;;;;;;;57.75;29.40;;;6.00;94.60;;;;;;6145386;23;20017;-87
2022/01/19 01:41:44;;;;;;;61.67;29.65;;;5.90;94.60;;;;;;6144696;23;20017;-89
2022/01/19 01:44:10;;;;;;;65.22;29.58;;;5.90;94.60;;;;;;6117575;23;20013;-88
2022/01/19 01:46:46;;;;;;;62.95;31.05;;;5.90;94.60;;;;;;6159919;23;20066;-76
2022/01/19 01:49:18;;;;;;;59.42;29.15;;;5.90;94.60;;;;;;6160061;23;20013;-76
2022/01/19 01:54:28;;;;;;;62.22;28.95;;;5.90;94.60;;;;;;6163706;23;20435;-77
2022/01/19 01:56:53;;;;;;;59.47;29.08;;;5.90;94.60;;;;;;6135603;23;20013;-76
2022/01/19 01:59:19;;;;;;;52.28;29.45;;;5.90;94.60;;;;;;6186482;23;20052;-76
2022/01/19 02:01:45;;;;;;;58.67;30.92;;;5.90;94.60;;;;;;6184288;23;20367;-77
2022/01/19 02:04:11;;;;;;;54.72;27.85;;;5.90;94.60;;;;;;6186312;23;20017;-76
2022/01/19 02:09:25;;;;;;;53.05;28.48;;;5.80;94.70;;;;;;6066045;23;20016;-76
2022/01/19 02:23:17;;;;;;;57.55;30.23;;;5.80;94.80;;;;;;6159718;23;20056;-76
2022/01/19 02:25:45;;;;;;;59.05;29.77;;;5.80;94.80;;;;;;6136708;23;20305;-76
2022/01/19 02:41:36;;;;;;;48.88;28.40;;;5.70;94.80;;;;;;6163324;23;20021;-77
2022/01/19 02:44:02;;;;;;;49.78;27.88;;;5.80;94.80;;;;;;6185827;23;20013;-76
2022/01/19 02:49:14;;;;;;;47.72;28.23;;;5.70;94.80;;;;;;6159316;23;20079;-76
2022/01/19 02:49:20;;;;;;;49.17;27.73;;;5.70;94.80;;;;;;6155844;23;20024;-75
2022/01/19 02:51:52;;;;;;;48.03;27.58;;;5.70;94.80;;;;;;6159688;23;20297;-76
2022/01/19 02:54:22;;;;;;;49.70;27.50;;;5.70;94.80;;;;;;6135046;23;20013;-77
2022/01/19 02:56:51;;;;;;;51.33;28.08;;;5.70;94.80;;;;;;6135237;23;20013;-76
2022/01/19 02:59:24;;;;;;;49.13;27.70;;;5.70;94.90;;;;;;6185540;23;20096;-76
2022/01/19 03:09:45;;;;;;;45.22;25.42;;;5.70;94.90;;;;;;6159178;23;20404;-82
2022/01/19 03:12:13;;;;;;;45.40;26.90;;;5.70;95.00;;;;;;6134428;23;20052;-76
2022/01/19 03:14:39;;;;;;;46.30;26.30;;;5.60;94.90;;;;;;6134584;23;20080;-77
2022/01/19 03:17:05;;;;;;;46.63;26.77;;;5.70;95.00;;;;;;6159438;23;20048;-76
2022/01/19 03:19:31;;;;;;;44.10;26.02;;;5.60;94.90;;;;;;6134822;23;20379;-77
2022/01/19 03:21:57;;;;;;;47.33;26.73;;;5.60;95.00;;;;;;6134472;23;20010;-76
2022/01/19 03:24:23;;;;;;;47.90;28.50;;;5.60;95.00;;;;;;6134154;23;20017;-76
2022/01/19 03:26:48;;;;;;;41.60;25.13;;;5.60;95.00;;;;;;6158707;23;20013;-77
2022/01/19 03:29:14;;;;;;;47.08;26.30;;;5.60;95.00;;;;;;6185505;23;20040;-76
2022/01/19 03:31:40;;;;;;;43.30;25.85;;;5.60;95.00;;;;;;6159325;23;20013;-87
2022/01/19 03:34:06;;;;;;;45.83;26.73;;;5.60;95.00;;;;;;6158882;23;20017;-76
2022/01/19 03:36:33;;;;;;;46.20;26.50;;;5.60;95.00;;;;;;6134652;23;20044;-77
2022/01/19 03:38:58;;;;;;;48.35;29.08;;;5.60;95.00;;;;;;6185433;23;20056;-76
2022/01/19 03:41:24;;;;;;;46.85;27.20;;;5.60;95.00;;;;;;6159285;23;20048;-77
2022/01/19 03:43:50;;;;;;;44.85;25.83;;;5.50;95.00;;;;;;6158934;23;20013;-76
2022/01/19 03:46:18;;;;;;;44.35;27.30;;;5.50;95.00;;;;;;6159443;23;20368;-75
2022/01/19 03:51:11;;;;;;;48.75;27.67;;;5.50;95.00;;;;;;6185546;23;20021;-76
2022/01/19 03:53:37;;;;;;;42.20;26.85;;;5.50;95.00;;;;;;6159015;23;20495;-76
2022/01/19 03:56:03;;;;;;;44.67;25.70;;;5.50;94.90;;;;;;6159064;23;20024;-77
2022/01/19 03:58:29;;;;;;;42.65;24.60;;;5.50;94.90;;;;;;6135081;23;20024;-76
2022/01/19 04:00:57;;;;;;;41.53;25.08;;;5.40;94.90;;;;;;6158874;23;20035;-77
2022/01/19 04:03:32;;;;;;;42.60;24.77;;;5.40;94.90;;;;;;6159050;23;20020;-76
2022/01/19 04:06:05;;;;;;;43.85;23.25;;;5.40;94.90;;;;;;6135809;23;20016;-77
2022/01/19 04:08:30;;;;;;;38.67;23.27;;;5.30;94.80;;;;;;6159101;23;20013;-76
2022/01/19 04:10:56;;;;;;;35.58;22.08;;;5.30;94.80;;;;;;6158642;23;20017;-76
2022/01/19 04:13:26;;;;;;;37.85;22.50;;;5.30;94.80;;;;;;6158934;23;20088;-76
2022/01/19 04:15:51;;;;;;;35.67;22.13;;;5.20;94.80;;;;;;6185002;23;20017;-77
2022/01/19 04:18:17;;;;;;;37.40;23.10;;;5.20;94.80;;;;;;6158604;23;20021;-76
2022/01/19 04:20:47;;;;;;;40.38;23.60;;;5.20;94.80;;;;;;6159064;23;20021;-77
2022/01/19 04:23:13;;;;;;;39.80;23.02;;;5.20;94.80;;;;;;6135307;23;20092;-76
2022/01/19 04:25:38;;;;;;;35.70;21.40;;;5.20;94.80;;;;;;6160401;23;20052;-75
2022/01/19 04:28:07;;;;;;;38.63;22.23;;;5.10;94.70;;;;;;6136588;23;20063;-76
2022/01/19 04:30:34;;;;;;;40.17;22.45;;;5.10;94.70;;;;;;6186014;23;20426;-76
2022/01/19 04:35:28;;;;;;;35.00;20.63;;;5.10;94.70;;;;;;6136614;23;20091;-77
2022/01/19 05:04:36;;;;;;;41.63;24.85;;;4.80;94.80;;;;;;6160602;23;20025;-76
2022/01/19 05:07:14;;;;;;;;;;;4.80;94.50;;;;;;6161955;23;20427;-75
2022/01/19 05:09:58;;;;;;;42.90;23.90;;;4.80;94.40;;;;;;6114058;23;19916;-76
2022/01/19 05:15:11;;;;;;;40.20;23.15;;;4.80;94.40;;;;;;6159989;23;20024;-76
2022/01/19 05:17:37;;;;;;;41.90;24.10;;;4.80;94.50;;;;;;6160448;23;20021;-76
2022/01/19 05:20:07;;;;;;;40.97;25.17;;;4.80;94.40;;;;;;6159857;23;20024;-76
2022/01/19 05:22:32;;;;;;;39.40;22.33;;;4.80;94.50;;;;;;6136189;23;20023;-76
2022/01/19 05:24:58;;;;;;;41.83;24.75;;;4.70;94.40;;;;;;6136087;23;20041;-78
2022/01/19 05:27:24;;;;;;;42.17;24.55;;;4.70;94.50;;;;;;6136247;23;20032;-76
2022/01/19 05:29:49;;;;;;;42.67;25.55;;;4.70;94.40;;;;;;6111153;23;20391;-76
2022/01/19 05:32:15;;;;;;;43.85;25.38;;;4.70;94.50;;;;;;6135820;23;20017;-76
2022/01/19 05:34:41;;;;;;;42.90;25.17;;;4.70;94.80;;;;;;6187005;23;20009;-77
2022/01/19 05:37:06;;;;;;;40.03;24.60;;;4.70;94.50;;;;;;6135362;23;20019;-76
2022/01/19 05:39:32;;;;;;;43.65;25.38;;;4.70;94.50;;;;;;6161005;23;20009;-76
2022/01/19 05:41:58;;;;;;;44.35;26.40;;;4.70;94.50;;;;;;6160838;23;20316;-76
2022/01/19 05:44:23;;;;;;;40.03;24.88;;;4.60;94.50;;;;;;6185942;23;20017;-76
2022/01/19 05:46:49;;;;;;;43.45;25.23;;;4.70;94.50;;;;;;6160385;23;20028;-76
2022/01/19 05:49:15;;;;;;;43.72;24.75;;;4.60;94.50;;;;;;6135255;23;20388;-75
2022/01/19 05:51:40;;;;;;;47.38;25.27;;;4.60;94.40;;;;;;6160344;23;20088;-76
2022/01/19 05:54:06;;;;;;;40.15;23.23;;;4.60;94.40;;;;;;6185959;23;20067;-77
2022/01/19 05:56:32;;;;;;;39.50;24.08;;;4.60;94.50;;;;;;6159838;23;20344;-76
2022/01/19 05:58:58;;;;;;;40.90;23.95;;;4.60;94.50;;;;;;6159871;23;20301;-76
2022/01/19 06:01:23;;;;;;;40.05;22.80;;;4.60;94.50;;;;;;6159434;23;20009;-76
2022/01/19 06:03:51;;;;;;;43.78;24.85;;;4.60;94.50;;;;;;6185631;23;20020;-77
2022/01/19 06:06:17;;;;;;;45.00;24.13;;;4.60;94.50;;;;;;6185702;23;20013;-75
2022/01/19 06:08:45;;;;;;;45.45;25.90;;;4.50;94.50;;;;;;6158881;23;20442;-76
2022/01/19 06:11:11;;;;;;;43.05;22.92;;;4.60;94.50;;;;;;6185789;23;20009;-76
2022/01/19 06:13:36;;;;;;;43.88;25.10;;;4.50;94.40;;;;;;6135150;23;20044;-76
2022/01/19 06:16:02;;;;;;;45.83;25.25;;;4.50;94.40;;;;;;6134684;23;20428;-76
2022/01/19 06:18:28;;;;;;;42.83;23.73;;;4.50;94.40;;;;;;6159307;23;20013;-76
2022/01/19 06:20:53;;;;;;;46.92;26.25;;;4.50;94.40;;;;;;6185143;23;20071;-76
2022/01/19 06:23:19;;;;;;;45.88;24.73;;;4.50;94.40;;;;;;6134911;23;20065;-75
2022/01/19 06:25:45;;;;;;;45.15;26.98;;;4.50;94.40;;;;;;6185929;23;20062;-76
2022/01/19 06:28:10;;;;;;;47.90;27.95;;;4.50;94.50;;;;;;6134626;23;20021;-76
2022/01/19 06:30:36;;;;;;;44.63;24.40;;;4.50;94.50;;;;;;6159097;23;20027;-77
2022/01/19 06:33:02;;;;;;;48.10;25.40;;;4.50;94.50;;;;;;6134835;23;20048;-77
2022/01/19 06:35:28;;;;;;;46.90;26.35;;;4.50;94.50;;;;;;6134519;23;20450;-75
2022/01/19 06:37:53;;;;;;;50.03;28.30;;;4.50;94.50;;;;;;6185730;23;20016;-75
2022/01/19 06:40:20;;;;;;;49.15;27.30;;;4.50;94.50;;;;;;6158821;23;20021;-77
2022/01/19 06:42:46;;;;;;;48.58;27.17;;;4.50;94.60;;;;;;6135169;23;20060;-76
2022/01/19 06:45:12;;;;;;;45.80;25.70;;;4.50;94.60;;;;;;6185429;23;20017;-77
2022/01/19 06:47:38;;;;;;;43.35;26.42;;;4.50;94.60;;;;;;6134213;23;20013;-75
2022/01/19 06:50:05;;;;;;;48.30;26.42;;;4.50;94.60;;;;;;6159157;23;20095;-75
2022/01/19 06:52:31;;;;;;;46.42;26.88;;;4.50;94.60;;;;;;6159433;23;20013;-76
2022/01/19 06:54:57;;;;;;;39.88;26.30;;;4.50;94.60;;;;;;6134629;23;20009;-75
2022/01/19 06:57:22;;;;;;;47.95;28.30;;;4.60;94.60;;;;;;6134544;23;20024;-75
2022/01/19 06:59:51;;;;;;;47.45;27.10;;;4.60;94.60;;;;;;6185742;23;20009;-75
2022/01/19 07:02:19;;;;;;;41.88;25.98;;;4.50;94.60;;;;;;6185170;23;20013;-76
2022/01/19 07:04:49;;;;;;;46.85;26.67;;;4.50;94.60;;;;;;6186837;23;20092;-79
2022/01/19 07:07:18;;;;;;;44.72;25.42;;;4.50;94.60;;;;;;6160288;23;20351;-80
2022/01/19 07:09:44;;;;;;;42.60;25.98;;;4.50;94.60;;;;;;6160868;23;20044;-78
2022/01/19 07:12:12;;;;;;;43.75;25.25;;;4.60;94.60;;;;;;6184592;23;20025;-79
2022/01/19 07:14:38;;;;;;;43.70;24.67;;;4.50;94.60;;;;;;6155180;23;20391;-74
2022/01/19 07:17:04;;;;;;;43.22;25.85;;;4.50;94.60;;;;;;6158546;23;20100;-76
2022/01/19 07:19:29;;;;;;;38.85;24.77;;;4.60;94.60;;;;;;6185287;23;20009;-75
2022/01/19 07:21:55;;;;;;;41.30;25.95;;;4.60;94.60;;;;;;6182194;23;20021;-77
2022/01/19 07:24:21;;;;;;;38.03;24.17;;;4.60;94.60;;;;;;6157279;23;20013;-75
2022/01/19 07:26:46;;;;;;;41.90;25.75;;;4.60;94.60;;;;;;6158722;23;20012;-75
2022/01/19 07:29:14;;;;;;;42.22;27.20;;;4.60;94.60;;;;;;6184938;23;20439;-75
2022/01/19 07:31:40;;;;;;;41.00;25.23;;;4.60;94.60;;;;;;6159602;23;20024;-76
2022/01/19 07:34:06;;;;;;;40.45;26.45;;;4.60;94.60;;;;;;6133365;23;20009;-76
2022/01/19 07:36:32;;;;;;;36.30;25.45;;;4.60;94.60;;;;;;6157740;23;20315;-75
2022/01/19 07:38:57;;;;;;;37.58;26.10;;;4.60;94.50;;;;;;6184864;23;20013;-75
2022/01/19 07:41:23;;;;;;;37.70;24.63;;;4.60;94.50;;;;;;6157742;23;20016;-75
2022/01/19 07:43:49;;;;;;;39.35;25.20;;;4.70;94.60;;;;;;6156407;23;20021;-80
2022/01/19 07:46:16;;;;;;;35.83;23.92;;;4.60;94.50;;;;;;6132673;23;20028;-79
2022/01/19 07:48:41;;;;;;;37.28;23.98;;;4.70;94.60;;;;;;6109539;23;20044;-77
2022/01/19 07:51:07;;;;;;;34.25;24.05;;;4.70;94.50;;;;;;6156011;23;20309;-77
2022/01/19 07:53:33;;;;;;;38.35;26.00;;;4.80;94.50;;;;;;6156288;23;20017;-75
2022/01/19 07:55:58;;;;;;;35.67;25.02;;;4.70;94.40;;;;;;6133111;23;20017;-75
2022/01/19 07:58:24;;;;;;;40.03;26.63;;;4.70;94.40;;;;;;6184714;23;20032;-75
2022/01/19 08:00:50;;;;;;;38.53;26.90;;;4.70;94.40;;;;;;6160364;23;20017;-74
2022/01/19 08:03:15;;;;;;;37.03;25.33;;;4.70;94.40;;;;;;6159604;23;20356;-74
2022/01/19 08:05:41;;;;;;;36.47;24.67;;;4.80;94.40;;;;;;6159792;23;20017;-73
2022/01/19 08:08:07;;;;;;;39.25;25.60;;;4.80;94.40;;;;;;6159796;23;20017;-74
2022/01/19 08:10:32;;;;;;;39.63;27.17;;;4.80;94.30;;;;;;6135254;23;20009;-74
2022/01/19 08:13:02;;;;;;;35.92;25.42;;;4.80;94.30;;;;;;6135432;23;20056;-76
2022/01/19 08:15:28;;;;;;;38.72;25.98;;;4.80;94.30;;;;;;6137190;23;20032;-75
2022/01/19 08:17:53;;;;;;;36.22;26.00;;;4.80;94.30;;;;;;6135504;23;20021;-74
2022/01/19 08:20:19;;;;;;;37.40;25.02;;;4.80;94.30;;;;;;6110733;23;20017;-74
2022/01/19 08:22:45;;;;;;;35.40;25.13;;;4.80;94.30;;;;;;6110055;23;20088;-74
2022/01/19 08:25:11;;;;;;;37.28;26.05;;;4.80;94.30;;;;;;6135791;23;20064;-73
2022/01/19 08:27:37;;;;;;;37.03;25.52;;;4.80;94.30;;;;;;6160663;23;20017;-75
2022/01/19 08:30:07;;;;;;;40.22;25.95;;;4.80;94.20;;;;;;6135356;23;20021;-74
2022/01/19 08:32:35;;;;;;;38.88;26.25;;;4.80;94.30;;;;;;6159695;23;20454;-75
2022/01/19 08:35:04;;;;;;;38.00;25.33;;;4.80;94.30;;;;;;6136492;23;20024;-73
2022/01/19 08:37:30;;;;;;;38.30;27.75;;;4.80;94.30;;;;;;6160026;23;20024;-74
2022/01/19 08:39:56;;;;;;;40.00;26.08;;;4.80;94.30;;;;;;6160041;23;20017;-73
2022/01/19 08:42:21;;;;;;;42.90;27.42;;;4.80;94.30;;;;;;6159831;23;20017;-74
2022/01/19 08:44:47;;;;;;;41.40;28.25;;;4.80;94.30;;;;;;6135014;23;20469;-74
2022/01/19 08:47:13;;;;;;;40.65;28.67;;;4.80;94.30;;;;;;6135819;23;20060;-73
2022/01/19 08:49:39;;;;;;;40.92;29.60;;;4.80;94.30;;;;;;6134946;23;20031;-74
2022/01/19 08:52:05;;;;;;;42.03;29.77;;;4.90;94.30;;;;;;6186667;23;20032;-73
2022/01/19 08:54:30;;;;;;;40.90;28.60;;;4.80;94.30;;;;;;6134998;23;20383;-84
2022/01/19 08:56:56;;;;;;;40.70;29.83;;;4.90;94.30;;;;;;6159628;23;20048;-74
2022/01/19 08:59:22;;;;;;;41.55;30.00;;;4.90;94.30;;;;;;6135353;23;20048;-74
2022/01/19 09:01:48;;;;;;;40.83;29.08;;;4.90;94.30;;;;;;6135063;23;20024;-74
2022/01/19 09:04:17;;;;;;;45.42;31.90;;;4.90;94.30;;;;;;6159936;23;20053;-74
2022/01/19 09:06:43;;;;;;;45.78;29.95;;;4.90;94.20;;;;;;6135658;23;20017;-74
2022/01/19 09:09:09;;;;;;;44.58;30.50;;;4.90;94.50;;;;;;6186224;23;20339;-74
2022/01/19 09:11:34;;;;;;;43.30;29.83;;;5.00;94.20;;;;;;6159165;23;20021;-76
2022/01/19 09:14:02;;;;;;;40.17;31.23;;;5.00;94.20;;;;;;6135175;23;20017;-74
2022/01/19 09:16:28;;;;;;;42.72;29.13;;;5.00;94.10;;;;;;6160742;23;20039;-74
2022/01/19 09:18:53;;;;;;;47.53;30.85;;;5.00;94.10;;;;;;6159574;23;20013;-74
2022/01/19 09:21:19;;;;;;;44.15;29.27;;;5.00;94.10;;;;;;6159743;23;20028;-73
2022/01/19 09:23:45;;;;;;;40.38;28.55;;;5.10;94.10;;;;;;6184846;23;20446;-74
2022/01/19 09:26:10;;;;;;;44.42;30.75;;;5.00;94.10;;;;;;6109400;23;20454;-74
2022/01/19 09:28:36;;;;;;;46.25;31.63;;;5.10;94.10;;;;;;6133138;23;20013;-76
2022/01/19 09:31:04;;;;;;;47.72;30.55;;;5.10;94.10;;;;;;6134235;23;20021;-74
2022/01/19 09:33:31;;;;;;;47.65;32.08;;;5.10;94.10;;;;;;6159787;23;20518;-74
2022/01/19 09:38:27;;;;;;;46.53;30.88;;;5.10;94.00;;;;;;6135652;23;20096;-72
2022/01/19 09:40:52;;;;;;;50.80;32.85;;;5.20;94.10;;;;;;6159237;23;20024;-72
2022/01/19 09:43:22;;;;;;;48.67;32.20;;;5.20;94.00;;;;;;6134542;23;20344;-73
2022/01/19 09:45:49;;;;;;;51.72;33.30;;;5.20;94.00;;;;;;6159711;23;20088;-74
2022/01/19 09:48:14;;;;;;;46.50;31.73;;;5.20;94.00;;;;;;6159038;23;20455;-74
2022/01/19 09:50:40;;;;;;;50.95;32.17;;;5.20;94.00;;;;;;6134456;23;20056;-74
2022/01/19 09:53:07;;;;;;;49.50;33.42;;;5.20;94.00;;;;;;6134632;23;20032;-73
2022/01/19 09:55:33;;;;;;;51.72;32.80;;;5.20;93.90;;;;;;6134989;23;20053;-74
2022/01/19 09:57:59;;;;;;;55.65;34.67;;;5.20;93.90;;;;;;6134153;23;20043;-75
2022/01/19 10:00:25;;;;;;;50.53;33.92;;;5.30;94.00;;;;;;6134322;23;20025;-73
2022/01/19 10:03:13;;;;;;;55.40;34.08;;;5.30;93.90;;;;;;6133887;23;20486;-74
2022/01/19 10:06:09;;;;;;;51.28;35.15;;;5.30;93.90;;;;;;6134688;23;20025;-74
2022/01/19 10:08:55;;;;;;;58.30;37.03;;;5.30;93.90;;;;;;6126677;23;20344;-74
2022/01/19 10:16:59;;;;;;;57.38;36.92;;;5.30;93.90;;;;;;6158939;23;20020;-82
2022/01/19 10:19:26;;;;;;;;;;;5.40;93.90;;;;;;6184325;23;20017;-74
2022/01/19 10:22:18;;;;;;;55.47;35.40;;;5.30;93.90;;;;;;6109783;23;19999;-73
2022/01/19 10:24:53;;;;;;;59.30;37.47;;;5.30;93.90;;;;;;6129591;23;20046;-76
2022/01/19 10:27:48;;;;;;;61.63;37.47;;;5.30;93.90;;;;;;6133230;23;20021;-76
2022/01/19 10:30:19;;;;;;;61.03;39.38;;;5.30;93.90;;;;;;6158311;23;20037;-74
2022/01/19 10:32:56;;;;;;;56.05;38.33;;;5.30;93.90;;;;;;6159214;23;20335;-81
2022/01/19 10:35:32;;;;;;;63.45;40.80;;;5.40;93.90;;;;;;6159958;23;20071;-74
2022/01/19 10:38:07;;;;;;;60.67;38.75;;;5.40;93.90;;;;;;6134356;23;20017;-73
2022/01/19 10:40:33;;;;;;;61.22;38.78;;;5.40;93.90;;;;;;6133938;23;20062;-75
2022/01/19 10:42:58;;;;;;;66.70;40.53;;;5.40;93.90;;;;;;6134011;23;20057;-73
2022/01/19 10:45:24;;;;;;;66.95;42.08;;;5.40;93.90;;;;;;6133523;23;20028;-74
2022/01/19 10:47:56;;;;;;;68.13;41.17;;;5.40;93.90;;;;;;6134119;23;20043;-74
2022/01/19 10:50:30;;;;;;;66.97;42.47;;;5.40;93.90;;;;;;6134222;23;20435;-74
2022/01/19 10:52:59;;;;;;;64.07;41.78;;;5.40;93.90;;;;;;6158618;23;20075;-74
2022/01/19 10:55:25;;;;;;;70.80;42.33;;;5.40;93.90;;;;;;6158969;23;20020;-77
2022/01/19 10:57:51;;;;;;;72.53;43.30;;;5.40;93.90;;;;;;6133729;23;20021;-73
2022/01/19 11:00:25;;;;;;;68.18;38.92;;;5.40;93.90;;;;;;6160674;23;20032;-75
2022/01/19 11:02:52;;;;;;;76.13;42.25;;;5.50;94.00;;;;;;6159452;23;20056;-77
2022/01/19 11:05:40;;;;;;;76.30;44.20;;;5.50;94.10;;;;;;6159906;23;20025;-77
2022/01/19 11:08:06;;;;;;;72.38;43.70;;;5.50;94.00;;;;;;6139828;23;20021;-74
2022/01/19 11:10:32;;;;;;;79.65;46.22;;;5.50;93.90;;;;;;6158940;23;20017;-75
2022/01/19 11:12:58;;;;;;;78.60;44.08;;;5.50;93.90;;;;;;6158472;23;20017;-76
2022/01/19 11:15:26;;;;;;;79.40;44.72;;;5.50;93.90;;;;;;6160649;23;20025;-74
2022/01/19 11:17:52;;;;;;;79.13;45.42;;;5.50;93.90;;;;;;6134574;23;20092;-77
2022/01/19 11:20:20;;;;;;;75.60;45.65;;;5.60;93.90;;;;;;6134954;23;20071;-75
2022/01/19 11:22:49;;;;;;;76.45;44.72;;;5.50;93.90;;;;;;6160058;23;20052;-77
2022/01/19 11:25:17;;;;;;;75.43;46.45;;;5.50;93.90;;;;;;6134623;23;20021;-77
2022/01/19 11:27:47;;;;;;;82.63;48.50;;;5.60;93.90;;;;;;6159072;23;20119;-76
2022/01/19 11:30:21;;;;;;;80.85;48.05;;;5.60;93.90;;;;;;6159821;23;20015;-76
2022/01/19 11:33:11;;;;;;;78.10;48.47;;;5.60;93.90;;;;;;6134901;23;20017;-76
2022/01/19 11:35:37;;;;;;;78.82;47.88;;;5.50;93.90;;;;;;6137018;23;20025;-75
2022/01/19 11:38:28;;;;;;;86.35;47.17;;;5.60;93.90;;;;;;6160735;23;20091;-74
2022/01/19 11:40:54;;;;;;;84.40;48.38;;;5.60;93.90;;;;;;6136346;23;20017;-74
2022/01/19 11:43:25;;;;;;;84.53;48.63;;;5.60;94.00;;;;;;6161668;23;20076;-75
2022/01/19 11:45:51;;;;;;;87.72;50.40;;;5.60;94.00;;;;;;6137515;23;20017;-75
2022/01/19 11:48:22;;;;;;;83.10;49.05;;;5.60;94.00;;;;;;6113234;23;20451;-75
2022/01/19 11:50:48;;;;;;;79.65;47.33;;;5.60;94.00;;;;;;6137785;23;20468;-75
2022/01/19 11:53:13;;;;;;;84.55;48.08;;;5.60;94.00;;;;;;6161770;23;20020;-74
2022/01/19 11:55:40;;;;;;;80.93;47.70;;;5.60;94.00;;;;;;6137494;23;20021;-74
2022/01/19 11:58:24;;;;;;;80.05;46.70;;;5.60;94.00;;;;;;6161295;23;20017;-75
2022/01/19 12:00:54;;;;;;;81.28;47.25;;;5.60;94.10;;;;;;6139076;23;20020;-75
2022/01/19 12:03:31;;;;;;;79.53;49.92;;;5.60;94.00;;;;;;6161108;23;20016;-76
2022/01/19 12:05:57;;;;;;;85.93;46.83;;;5.60;94.00;;;;;;6161414;23;20060;-75
2022/01/19 12:08:30;;;;;;;79.82;45.33;;;5.70;94.10;;;;;;6160652;23;20021;-74
2022/01/19 12:11:20;;;;;;;81.63;46.70;;;5.60;94.00;;;;;;6136265;23;20021;-75
2022/01/19 12:16:38;;;;;;;78.45;46.13;;;5.70;94.00;;;;;;6137173;23;20025;-76
2022/01/19 12:19:07;;;;;;;78.03;45.97;;;5.60;94.00;;;;;;6117845;23;20071;-76
2022/01/19 12:21:48;;;;;;;80.70;48.08;;;5.70;94.00;;;;;;6162793;23;20013;-76
2022/01/19 12:24:21;;;;;;;81.55;46.03;;;5.70;94.00;;;;;;6138751;23;20418;-76
2022/01/19 12:27:00;;;;;;;78.70;48.15;;;5.60;94.00;;;;;;6136919;23;20016;-77
2022/01/19 12:29:37;;;;;;;78.60;45.20;;;5.70;94.00;;;;;;6137422;23;20013;-74
2022/01/19 12:32:15;;;;;;;71.80;46.88;;;5.70;94.00;;;;;;6136659;23;20056;-75
2022/01/19 12:34:44;;;;;;;77.78;46.10;;;5.60;94.00;;;;;;6186697;23;20339;-74
2022/01/19 12:37:11;;;;;;;81.05;46.10;;;5.70;94.10;;;;;;6158840;23;20025;-74
2022/01/19 12:39:43;;;;;;;81.13;47.83;;;5.70;94.00;;;;;;6160771;23;20316;-79
2022/01/19 12:42:20;;;;;;;81.40;47.42;;;5.70;94.10;;;;;;6164334;23;20079;-76
2022/01/19 12:44:52;;;;;;;79.40;50.03;;;5.70;94.00;;;;;;6161089;23;20017;-74
2022/01/19 12:50:07;;;;;;;80.63;47.30;;;5.70;94.00;;;;;;6159784;23;20320;-73
2022/01/19 12:52:34;;;;;;;79.10;48.83;;;5.70;94.00;;;;;;6135587;23;20021;-73
2022/01/19 12:55:14;;;;;;;73.13;47.50;;;5.70;94.00;;;;;;6159801;23;20428;-74
2022/01/19 12:57:40;;;;;;;80.75;46.65;;;5.70;94.00;;;;;;6136635;23;20013;-74
2022/01/19 13:00:10;;;;;;;78.25;47.13;;;5.70;94.00;;;;;;6186118;23;20024;-76
2022/01/19 13:02:36;;;;;;;79.15;47.95;;;5.70;94.00;;;;;;6160829;23;20402;-75
2022/01/19 13:05:07;;;;;;;77.05;46.70;;;5.70;94.10;;;;;;6135862;23;20056;-75
2022/01/19 13:07:55;;;;;;;73.28;45.28;;;5.70;94.10;;;;;;6112808;23;20071;-75
2022/01/19 13:10:28;;;;;;;77.63;47.15;;;5.70;94.10;;;;;;6111233;23;20469;-74
2022/01/19 13:12:58;;;;;;;75.38;47.17;;;5.70;94.10;;;;;;6160072;23;20056;-74
2022/01/19 13:15:25;;;;;;;77.85;45.42;;;5.70;94.10;;;;;;6135746;23;20435;-74
2022/01/19 13:17:52;;;;;;;78.38;46.20;;;5.70;94.10;;;;;;6159988;23;20044;-75
2022/01/19 13:20:20;;;;;;;74.47;46.50;;;5.70;94.10;;;;;;6135208;23;20458;-74
2022/01/19 13:22:47;;;;;;;76.82;46.17;;;5.80;94.20;;;;;;6135370;23;20096;-74
2022/01/19 13:25:25;;;;;;;78.68;45.10;;;5.80;94.20;;;;;;6183782;23;20017;-76
2022/01/19 13:27:54;;;;;;;70.03;44.85;;;5.80;94.20;;;;;;6135972;23;20096;-74
2022/01/19 13:30:20;;;;;;;70.65;45.75;;;5.80;94.10;;;;;;6110248;23;20021;-76
2022/01/19 13:32:45;;;;;;;70.85;43.80;;;5.90;94.20;;;;;;6135256;23;20013;-75
2022/01/19 13:35:11;;;;;;;71.47;44.33;;;5.90;94.20;;;;;;6135079;23;20100;-76
2022/01/19 13:37:45;;;;;;;72.40;44.70;;;5.90;94.20;;;;;;6159505;23;20075;-75
2022/01/19 13:40:16;;;;;;;65.57;43.10;;;5.90;94.20;;;;;;6160421;23;20340;-76
2022/01/19 13:42:51;;;;;;;70.88;43.20;;;5.90;94.20;;;;;;6111008;23;20444;-74
2022/01/19 13:48:20;;;;;;;67.30;42.83;;;6.00;94.10;;;;;;6185636;23;20029;-74
2022/01/19 13:50:53;;;;;;;64.95;42.33;;;6.00;94.10;;;;;;6160726;23;20017;-73
2022/01/19 13:53:51;;;;;;;64.35;41.42;;;6.00;94.10;;;;;;6160054;23;20021;-74
2022/01/19 13:56:36;;;;;;;65.35;42.75;;;6.00;94.10;;;;;;6163243;23;20052;-74
2022/01/19 13:59:13;;;;;;;60.35;39.60;;;6.00;94.10;;;;;;6135619;23;20028;-74
2022/01/19 14:01:41;;;;;;;66.13;40.38;;;6.00;94.10;;;;;;6159449;23;20025;-74
2022/01/19 14:04:11;;;;;;;64.43;41.45;;;6.10;94.10;;;;;;6159335;23;20491;-73
2022/01/19 14:06:44;;;;;;;61.60;39.00;;;6.10;94.10;;;;;;6159248;23;20020;-74
2022/01/19 14:09:16;;;;;;;63.72;41.30;;;6.10;94.10;;;;;;6135369;23;20021;-73
2022/01/19 14:11:46;;;;;;;62.30;41.53;;;6.10;94.10;;;;;;6184235;23;20017;-73
2022/01/19 14:14:25;;;;;;;61.67;39.83;;;6.10;94.10;;;;;;6134745;23;20059;-73
2022/01/19 14:16:55;;;;;;;57.42;36.60;;;6.10;94.40;;;;;;6160709;23;20017;-76
2022/01/19 14:19:31;;;;;;;63.58;38.80;;;6.10;94.00;;;;;;6158588;23;20040;-75